»·PEaware :: N454AH KPRC-KBLH

N454AH :: KPRC-KBLH

FLIGHT INFORMATION

Flight Status: Arrived
Operator: Privately registered:
United States
More flights under this callsign
Pilot: Andrew H. (17317)
Aircraft: PIPER PA-28R-201 ARROW
(P28R)
More flights by this aircraft type
Origin: KPRC Love
United States
Destination: KBLH Blythe
United States
More flights between these airports :: More routes between these airports
Route: +
File this flight plan on PilotEdge
Remarks:
Altitude:
(Current/Filed)
7,500ft
Speed:
(Current/Filed)
130kts
Departed: 19-Mar-18 06:32 PM
Arrived: 19-Mar-18 07:41 PM
Distance/Time
Traveled:
130nm/1:08
Distance/Time
To Go:
Arrived

Flight Plot

Page will automatically refresh every two minutes.

Flight plan parsing failed; only flown route is shown


Map Options




Map Legend


Flown Route
Filed Route
Departure Airport
Arrival Airport
Navaid (VOR, NDB)
Fix

Horizontal Profiles

Position Reports

Time Latitude Longitude Heading Altitude Ground
Speed
19-Mar-18 17:52 34.653925 -112.422740 130 4990ft 0kts
19-Mar-18 17:53 34.653925 -112.422740 130 4990ft 0kts
19-Mar-18 17:54 34.653925 -112.422740 130 4990ft 0kts
19-Mar-18 17:55 34.653925 -112.422740 130 4990ft 0kts
19-Mar-18 17:56 34.653925 -112.422740 130 4990ft 0kts
19-Mar-18 17:57 34.653925 -112.422740 130 4990ft 0kts
19-Mar-18 17:58 34.653925 -112.422740 130 4990ft 0kts
19-Mar-18 17:59 34.653925 -112.422740 130 4990ft 0kts
19-Mar-18 18:00 34.653925 -112.422740 130 4990ft 0kts
19-Mar-18 18:01 34.653925 -112.422740 130 4990ft 0kts
19-Mar-18 18:02 34.653925 -112.422740 130 4990ft 0kts
19-Mar-18 18:03 34.653925 -112.422740 130 4990ft 0kts
19-Mar-18 18:04 34.653925 -112.422740 130 4990ft 0kts
19-Mar-18 18:05 34.653925 -112.422740 130 4990ft 0kts
19-Mar-18 18:06 34.653925 -112.422740 130 4990ft 0kts
19-Mar-18 18:07 34.653925 -112.422740 130 4990ft 0kts
19-Mar-18 18:08 34.653925 -112.422740 130 4990ft 0kts
19-Mar-18 18:09 34.653925 -112.422740 130 4990ft 0kts
19-Mar-18 18:10 34.653925 -112.422740 130 4990ft 0kts
19-Mar-18 18:11 34.653925 -112.422740 130 4990ft 0kts
19-Mar-18 18:12 34.653925 -112.422740 130 4990ft 0kts
19-Mar-18 18:13 34.653925 -112.422740 130 4990ft 0kts
19-Mar-18 18:14 34.653925 -112.422740 130 4990ft 0kts
19-Mar-18 18:15 34.653925 -112.422740 130 4990ft 0kts
19-Mar-18 18:16 34.653925 -112.422740 130 4990ft 0kts
19-Mar-18 18:17 34.653925 -112.422740 130 4990ft 0kts
19-Mar-18 18:18 34.653925 -112.422740 130 4990ft 0kts
19-Mar-18 18:19 34.653925 -112.422740 130 4990ft 0kts
19-Mar-18 18:20 34.653925 -112.422740 130 4990ft 0kts
19-Mar-18 18:21 34.653925 -112.422740 130 4990ft 0kts
19-Mar-18 18:22 34.654069 -112.422021 39 4989ft 5kts
19-Mar-18 18:23 34.655212 -112.420652 105 4984ft 1kts
19-Mar-18 18:24 34.656295 -112.419074 41 4976ft 9kts
19-Mar-18 18:25 34.657943 -112.417341 40 4966ft 8kts
19-Mar-18 18:26 34.659679 -112.415488 40 4957ft 7kts
19-Mar-18 18:27 34.661423 -112.413549 40 4948ft 5kts
19-Mar-18 18:28 34.661495 -112.413495 23 4947ft 2kts
19-Mar-18 18:29 34.661904 -112.413077 124 4945ft 0kts
19-Mar-18 18:30 34.661405 -112.412373 157 4947ft 8kts
19-Mar-18 18:31 34.650248 -112.423889 223 5145ft 89kts
19-Mar-18 18:32 34.630992 -112.444235 223 5816ft 90kts
19-Mar-18 18:33 34.611614 -112.461181 215 6502ft 85kts
19-Mar-18 18:34 34.593282 -112.480416 231 7065ft 91kts
19-Mar-18 18:35 34.577869 -112.505750 252 7529ft 101kts
19-Mar-18 18:36 34.573317 -112.543930 273 7556ft 121kts
19-Mar-18 18:37 34.571693 -112.584969 266 7558ft 120kts
19-Mar-18 18:38 34.557306 -112.621338 224 7571ft 127kts
19-Mar-18 18:39 34.528862 -112.647582 215 7617ft 130kts
19-Mar-18 18:40 34.497715 -112.671004 214 7498ft 139kts
19-Mar-18 18:41 34.467677 -112.698380 225 7516ft 129kts
19-Mar-18 18:42 34.444998 -112.732080 237 7533ft 128kts
19-Mar-18 18:43 34.424252 -112.767692 241 7525ft 130kts
19-Mar-18 18:44 34.405652 -112.804795 240 7569ft 128kts
19-Mar-18 18:45 34.386345 -112.841656 244 7541ft 130kts
19-Mar-18 18:46 34.371184 -112.881536 251 7518ft 129kts
19-Mar-18 18:47 34.357988 -112.921086 252 7566ft 127kts
19-Mar-18 18:48 34.343575 -112.960181 249 7590ft 128kts
19-Mar-18 18:49 34.330340 -113.000924 256 7550ft 126kts
19-Mar-18 18:50 34.319657 -113.042060 258 7500ft 129kts
19-Mar-18 18:51 34.310180 -113.083505 259 7485ft 127kts
19-Mar-18 18:52 34.299681 -113.124720 257 7459ft 128kts
19-Mar-18 18:53 34.290093 -113.166135 259 7435ft 128kts
19-Mar-18 18:54 34.281682 -113.207796 262 7415ft 127kts
19-Mar-18 18:55 34.264774 -113.245707 239 7451ft 127kts
19-Mar-18 18:56 34.246583 -113.282248 243 7510ft 127kts
19-Mar-18 18:57 34.228309 -113.318939 247 7553ft 125kts
19-Mar-18 18:58 34.213522 -113.356555 252 7603ft 122kts
19-Mar-18 18:59 34.200029 -113.394507 252 7601ft 122kts
19-Mar-18 19:00 34.190389 -113.433715 262 7561ft 121kts
19-Mar-18 19:01 34.184777 -113.473788 265 7536ft 120kts
19-Mar-18 19:02 34.180528 -113.514012 262 7507ft 121kts
19-Mar-18 19:03 34.168515 -113.552151 243 7477ft 124kts
19-Mar-18 19:04 34.148567 -113.586442 237 7462ft 124kts
19-Mar-18 19:05 34.127977 -113.619688 237 7463ft 124kts
19-Mar-18 19:06 34.107415 -113.652874 237 7464ft 124kts
19-Mar-18 19:07 34.086794 -113.686174 237 7464ft 124kts
19-Mar-18 19:08 34.066609 -113.720266 245 7438ft 123kts
19-Mar-18 19:09 34.050939 -113.757015 247 7425ft 123kts
19-Mar-18 19:10 34.035648 -113.793795 247 7418ft 123kts
19-Mar-18 19:11 34.020291 -113.830643 247 7407ft 123kts
19-Mar-18 19:12 34.004849 -113.867277 247 7427ft 122kts
19-Mar-18 19:13 33.989581 -113.903721 247 7441ft 122kts
19-Mar-18 19:14 33.974726 -113.940374 248 7453ft 121kts
19-Mar-18 19:15 33.960724 -113.977134 249 7491ft 120kts
19-Mar-18 19:16 33.946122 -114.013762 248 7477ft 121kts
19-Mar-18 19:17 33.929236 -114.049500 243 7452ft 124kts
19-Mar-18 19:18 33.912032 -114.085781 249 7420ft 125kts
19-Mar-18 19:19 33.899864 -114.125169 252 7394ft 127kts
19-Mar-18 19:20 33.883601 -114.163099 247 7373ft 128kts
19-Mar-18 19:21 33.871173 -114.203398 255 7364ft 129kts
19-Mar-18 19:22 33.854611 -114.241451 241 7405ft 129kts
19-Mar-18 19:23 33.835264 -114.277572 237 7266ft 128kts
19-Mar-18 19:24 33.814708 -114.314335 236 6745ft 134kts
19-Mar-18 19:25 33.795760 -114.352599 243 6260ft 132kts
19-Mar-18 19:26 33.777864 -114.391284 243 5765ft 132kts
19-Mar-18 19:27 33.761112 -114.430224 242 5205ft 130kts
19-Mar-18 19:28 33.745439 -114.469152 244 4604ft 126kts
19-Mar-18 19:29 33.730677 -114.507500 242 3778ft 125kts
19-Mar-18 19:30 33.711454 -114.541085 228 3040ft 118kts
19-Mar-18 19:31 33.691592 -114.570327 232 2532ft 107kts
19-Mar-18 19:32 33.675474 -114.599542 238 2210ft 102kts
19-Mar-18 19:33 33.661231 -114.627828 235 2090ft 102kts
19-Mar-18 19:34 33.645439 -114.656011 235 1761ft 97kts
19-Mar-18 19:35 33.633561 -114.682355 258 1306ft 82kts
19-Mar-18 19:36 33.634045 -114.708740 271 1078ft 80kts
19-Mar-18 19:37 33.635956 -114.734717 272 1134ft 80kts
19-Mar-18 19:38 33.626823 -114.753045 171 1073ft 71kts
19-Mar-18 19:39 33.616572 -114.737719 90 585ft 60kts
19-Mar-18 19:40 33.616428 -114.718657 89 392ft 39kts
19-Mar-18 19:41 33.615153 -114.715157 179 392ft 8kts
19-Mar-18 19:42 33.614029 -114.713876 111 390ft 6kts
19-Mar-18 19:43 33.614157 -114.713220 355 391ft 0kts
19-Mar-18 19:44 33.614157 -114.713220 355 391ft 0kts
19-Mar-18 19:45 33.614157 -114.713220 355 391ft 0kts
19-Mar-18 19:46 33.614157 -114.713220 355 391ft 0kts
19-Mar-18 19:47 33.614157 -114.713220 355 391ft 0kts
19-Mar-18 19:48 33.614157 -114.713220 355 391ft 0kts
19-Mar-18 19:49 33.614157 -114.713220 355 391ft 0kts
19-Mar-18 19:50 33.614157 -114.713220 355 391ft 0kts
19-Mar-18 19:51 33.614157 -114.713220 355 391ft 0kts
19-Mar-18 19:52 33.614157 -114.713220 355 391ft 0kts
19-Mar-18 19:53 33.614157 -114.713220 355 391ft 0kts
19-Mar-18 19:54 33.614157 -114.713220 355 391ft 0kts

Navigation Log

Ident Type
Flight plan parsing failed, navigation log unavailable